EZY519 EGGP-EGNS
Flight info
| Callsign | EZY519 |
|---|---|
| Flight time | 0h 21m |
| Altitude | 12000 |
| Route | WAL M146 LUSOD DCT IOM |
| Aircraft | A320/M-SDE3FGHIRWY/LB1 |
Departure
| Time | 2026-04-25 15:44 |
|---|---|
| Airport | Liverpool John Lennon Airport (EGGP) |
Arrival
| Time | 2026-04-25 16:06 |
|---|---|
| Airport | Isle of Man Airport (EGNS) |
| Time | Latitude | Longitude | Altitude | Speed | Heading |
|---|---|---|---|---|---|
| 2026-04-25 15:20 | 53.33584 | -2.85192 | 88 ft | 0 kts | 264° |
| 2026-04-25 15:37 | 53.33584 | -2.85188 | 85 ft | 2 kts | 264° |
| 2026-04-25 15:37 | 53.33587 | -2.85145 | 87 ft | 4 kts | 264° |
| 2026-04-25 15:38 | 53.33589 | -2.85109 | 88 ft | 4 kts | 261° |
| 2026-04-25 15:38 | 53.33598 | -2.85074 | 90 ft | 4 kts | 197° |
| 2026-04-25 15:38 | 53.33622 | -2.85072 | 88 ft | 3 kts | 175° |
| 2026-04-25 15:38 | 53.33626 | -2.85073 | 90 ft | 0 kts | 175° |
| 2026-04-25 15:40 | 53.33622 | -2.85071 | 88 ft | 2 kts | 168° |
| 2026-04-25 15:40 | 53.33607 | -2.85069 | 90 ft | 4 kts | 174° |
| 2026-04-25 15:41 | 53.33557 | -2.85058 | 85 ft | 8 kts | 168° |
| 2026-04-25 15:41 | 53.33527 | -2.85006 | 86 ft | 6 kts | 97° |
| 2026-04-25 15:41 | 53.33534 | -2.84909 | 89 ft | 12 kts | 83° |
| 2026-04-25 15:41 | 53.33540 | -2.84735 | 88 ft | 18 kts | 87° |
| 2026-04-25 15:42 | 53.33551 | -2.84481 | 85 ft | 25 kts | 86° |
| 2026-04-25 15:42 | 53.33565 | -2.84180 | 85 ft | 27 kts | 84° |
| 2026-04-25 15:42 | 53.33582 | -2.83870 | 85 ft | 25 kts | 86° |
| 2026-04-25 15:42 | 53.33576 | -2.83654 | 90 ft | 9 kts | 141° |
| 2026-04-25 15:43 | 53.33520 | -2.83628 | 87 ft | 8 kts | 175° |
| 2026-04-25 15:43 | 53.33450 | -2.83619 | 85 ft | 15 kts | 179° |
| 2026-04-25 15:43 | 53.33416 | -2.83750 | 85 ft | 16 kts | 265° |
| 2026-04-25 15:43 | 53.33396 | -2.84252 | 85 ft | 80 kts | 267° |
| 2026-04-25 15:44 | 53.33333 | -2.85527 | 90 ft | 137 kts | 265° |
| 2026-04-25 15:44 | 53.33246 | -2.87199 | 618 ft | 142 kts | 264° |
| 2026-04-25 15:44 | 53.33146 | -2.88820 | 1270 ft | 140 kts | 265° |
| 2026-04-25 15:44 | 53.33040 | -2.90551 | 1560 ft | 159 kts | 265° |
| 2026-04-25 15:45 | 53.33069 | -2.92478 | 1813 ft | 176 kts | 284° |
| 2026-04-25 15:45 | 53.33568 | -2.94467 | 2001 ft | 196 kts | 297° |
| 2026-04-25 15:45 | 53.34201 | -2.96613 | 2187 ft | 215 kts | 297° |
| 2026-04-25 15:45 | 53.34430 | -2.97382 | 2260 ft | 223 kts | 297° |
| 2026-04-25 15:46 | 53.35679 | -3.01560 | 2723 ft | 256 kts | 296° |
| 2026-04-25 15:46 | 53.36209 | -3.03341 | 3078 ft | 260 kts | 296° |
| 2026-04-25 15:46 | 53.37290 | -3.06990 | 3889 ft | 263 kts | 296° |
| 2026-04-25 15:46 | 53.37829 | -3.08816 | 4308 ft | 264 kts | 296° |
| 2026-04-25 15:47 | 53.38926 | -3.12516 | 5125 ft | 266 kts | 298° |
| 2026-04-25 15:47 | 53.39631 | -3.14201 | 5489 ft | 268 kts | 312° |
| 2026-04-25 15:47 | 53.40937 | -3.16445 | 6065 ft | 270 kts | 314° |
| 2026-04-25 15:47 | 53.42263 | -3.18694 | 6617 ft | 272 kts | 314° |
| 2026-04-25 15:48 | 53.43596 | -3.20950 | 7120 ft | 274 kts | 314° |
| 2026-04-25 15:48 | 53.44944 | -3.23230 | 7615 ft | 276 kts | 314° |
| 2026-04-25 15:48 | 53.46299 | -3.25529 | 8108 ft | 278 kts | 314° |
| 2026-04-25 15:48 | 53.47666 | -3.27855 | 8589 ft | 281 kts | 314° |
| 2026-04-25 15:49 | 53.49041 | -3.30199 | 9069 ft | 283 kts | 314° |
| 2026-04-25 15:49 | 53.50428 | -3.32565 | 9541 ft | 285 kts | 314° |
| 2026-04-25 15:49 | 53.51822 | -3.34954 | 10003 ft | 288 kts | 313° |
| 2026-04-25 15:49 | 53.53231 | -3.37382 | 10328 ft | 294 kts | 313° |
| 2026-04-25 15:50 | 53.54689 | -3.39900 | 10437 ft | 306 kts | 313° |
| 2026-04-25 15:50 | 53.56204 | -3.42510 | 10575 ft | 316 kts | 313° |
| 2026-04-25 15:50 | 53.57735 | -3.45197 | 10841 ft | 319 kts | 309° |
| 2026-04-25 15:50 | 53.59062 | -3.48196 | 11136 ft | 320 kts | 304° |
| 2026-04-25 15:51 | 53.60355 | -3.51268 | 11439 ft | 322 kts | 304° |
| 2026-04-25 15:51 | 53.61212 | -3.53304 | 11638 ft | 322 kts | 304° |
| 2026-04-25 15:51 | 53.62951 | -3.57439 | 12029 ft | 324 kts | 304° |
| 2026-04-25 15:51 | 53.64256 | -3.60543 | 12321 ft | 325 kts | 304° |
| 2026-04-25 15:52 | 53.65565 | -3.63659 | 12601 ft | 326 kts | 304° |
| 2026-04-25 15:52 | 53.66878 | -3.66792 | 12865 ft | 328 kts | 304° |
| 2026-04-25 15:52 | 53.68192 | -3.69933 | 13128 ft | 329 kts | 304° |
| 2026-04-25 15:52 | 53.69511 | -3.73092 | 13383 ft | 330 kts | 304° |
| 2026-04-25 15:53 | 53.70832 | -3.76264 | 13617 ft | 331 kts | 303° |
| 2026-04-25 15:53 | 53.72158 | -3.79448 | 13851 ft | 332 kts | 303° |
| 2026-04-25 15:53 | 53.73487 | -3.82643 | 14071 ft | 333 kts | 303° |
| 2026-04-25 15:53 | 53.74820 | -3.85854 | 14189 ft | 333 kts | 303° |
| 2026-04-25 15:54 | 53.76140 | -3.89032 | 14215 ft | 331 kts | 303° |
| 2026-04-25 15:54 | 53.77476 | -3.92256 | 14217 ft | 338 kts | 303° |
| 2026-04-25 15:54 | 53.78826 | -3.95528 | 14203 ft | 339 kts | 303° |
| 2026-04-25 15:54 | 53.80138 | -3.98706 | 13824 ft | 319 kts | 303° |
| 2026-04-25 15:55 | 53.81367 | -4.01678 | 13433 ft | 308 kts | 303° |
| 2026-04-25 15:55 | 53.82583 | -4.04617 | 13034 ft | 303 kts | 303° |
| 2026-04-25 15:55 | 53.83788 | -4.07536 | 12589 ft | 301 kts | 303° |
| 2026-04-25 15:55 | 53.84979 | -4.10434 | 12153 ft | 299 kts | 303° |
| 2026-04-25 15:56 | 53.86163 | -4.13319 | 11725 ft | 297 kts | 303° |
| 2026-04-25 15:56 | 53.87338 | -4.16186 | 11301 ft | 295 kts | 303° |
| 2026-04-25 15:56 | 53.88502 | -4.19024 | 10888 ft | 292 kts | 303° |
| 2026-04-25 15:56 | 53.89659 | -4.21845 | 10475 ft | 290 kts | 303° |
| 2026-04-25 15:57 | 53.90808 | -4.24650 | 10068 ft | 289 kts | 303° |
| 2026-04-25 15:57 | 53.91948 | -4.27439 | 9617 ft | 287 kts | 303° |
| 2026-04-25 15:57 | 53.93077 | -4.30207 | 9177 ft | 284 kts | 303° |
| 2026-04-25 15:57 | 53.94148 | -4.33006 | 8736 ft | 281 kts | 296° |
| 2026-04-25 15:58 | 53.95017 | -4.35976 | 8299 ft | 279 kts | 295° |
| 2026-04-25 15:58 | 53.95873 | -4.38918 | 7869 ft | 277 kts | 295° |
| 2026-04-25 15:58 | 53.96725 | -4.41839 | 7453 ft | 275 kts | 296° |
| 2026-04-25 15:58 | 53.97572 | -4.44740 | 7083 ft | 273 kts | 296° |
| 2026-04-25 15:59 | 53.98410 | -4.47623 | 6718 ft | 272 kts | 296° |
| 2026-04-25 15:59 | 53.99242 | -4.50493 | 6333 ft | 270 kts | 296° |
| 2026-04-25 15:59 | 54.00070 | -4.53346 | 5954 ft | 268 kts | 296° |
| 2026-04-25 15:59 | 54.00742 | -4.56285 | 5570 ft | 263 kts | 283° |
| 2026-04-25 16:00 | 54.01070 | -4.59288 | 5188 ft | 256 kts | 277° |
| 2026-04-25 16:00 | 54.01136 | -4.60298 | 5046 ft | 255 kts | 275° |
| 2026-04-25 16:00 | 54.01385 | -4.65260 | 4280 ft | 252 kts | 274° |
| 2026-04-25 16:00 | 54.01528 | -4.68208 | 3820 ft | 248 kts | 274° |
| 2026-04-25 16:01 | 54.01664 | -4.71058 | 3369 ft | 236 kts | 272° |
| 2026-04-25 16:01 | 54.01700 | -4.73795 | 2934 ft | 228 kts | 270° |
| 2026-04-25 16:01 | 54.01704 | -4.76434 | 2537 ft | 218 kts | 269° |
| 2026-04-25 16:01 | 54.01717 | -4.78975 | 2155 ft | 212 kts | 274° |
| 2026-04-25 16:02 | 54.02239 | -4.81197 | 1993 ft | 196 kts | 313° |
| 2026-04-25 16:02 | 54.03345 | -4.82337 | 2030 ft | 184 kts | 343° |
| 2026-04-25 16:02 | 54.04593 | -4.82499 | 2019 ft | 179 kts | 9° |
| 2026-04-25 16:02 | 54.05716 | -4.81777 | 2010 ft | 170 kts | 34° |
| 2026-04-25 16:03 | 54.06538 | -4.80378 | 2023 ft | 167 kts | 58° |
| 2026-04-25 16:03 | 54.06949 | -4.78552 | 2006 ft | 166 kts | 82° |
| 2026-04-25 16:03 | 54.07106 | -4.76642 | 1846 ft | 157 kts | 83° |
| 2026-04-25 16:03 | 54.07251 | -4.74861 | 1616 ft | 148 kts | 83° |
| 2026-04-25 16:04 | 54.07387 | -4.73161 | 1389 ft | 143 kts | 83° |
| 2026-04-25 16:04 | 54.07511 | -4.71491 | 1163 ft | 142 kts | 86° |
| 2026-04-25 16:04 | 54.07575 | -4.69812 | 927 ft | 143 kts | 86° |
| 2026-04-25 16:04 | 54.07675 | -4.68127 | 680 ft | 143 kts | 83° |
| 2026-04-25 16:05 | 54.07841 | -4.66458 | 457 ft | 143 kts | 81° |
| 2026-04-25 16:05 | 54.08028 | -4.64797 | 240 ft | 142 kts | 80° |
| 2026-04-25 16:05 | 54.08403 | -4.61775 | 36 ft | 84 kts | 78° |
| 2026-04-25 16:06 | 54.08495 | -4.61048 | 34 ft | 42 kts | 78° |
| 2026-04-25 16:06 | 54.08564 | -4.60777 | 35 ft | 16 kts | 27° |
| 2026-04-25 16:06 | 54.08660 | -4.60846 | 35 ft | 20 kts | 306° |
| 2026-04-25 16:06 | 54.08649 | -4.61129 | 36 ft | 26 kts | 256° |
| 2026-04-25 16:07 | 54.08610 | -4.61431 | 37 ft | 27 kts | 258° |
| 2026-04-25 16:07 | 54.08585 | -4.61638 | 37 ft | 27 kts | 258° |
| 2026-04-25 16:07 | 54.08530 | -4.62071 | 38 ft | 29 kts | 258° |
| 2026-04-25 16:07 | 54.08488 | -4.62402 | 37 ft | 29 kts | 257° |
| 2026-04-25 16:08 | 54.08445 | -4.62739 | 38 ft | 27 kts | 258° |
| 2026-04-25 16:08 | 54.08431 | -4.62974 | 37 ft | 16 kts | 309° |
| 2026-04-25 16:08 | 54.08528 | -4.63018 | 37 ft | 14 kts | 348° |
| 2026-04-25 16:08 | 54.08605 | -4.63080 | 37 ft | 12 kts | 314° |
| 2026-04-25 16:09 | 54.08644 | -4.63166 | 36 ft | 7 kts | 308° |
| 2026-04-25 16:09 | 54.08662 | -4.63213 | 36 ft | 1 kts | 280° |
| 2026-04-25 16:09 | 54.08643 | -4.63243 | 35 ft | 6 kts | 223° |
| 2026-04-25 16:09 | 54.08630 | -4.63264 | 36 ft | 0 kts | 224° |
| 2026-04-25 16:10 | 54.08630 | -4.63265 | 36 ft | 0 kts | 224° |